Baudette, Minnesota
Current Conditions -  °F | °C
As of 10:53 AM on Thursday 30 Oct 2014 (Local Time) from KBDE Reporting Station
Light Rain Light Rain  
Wind Chill: 29°   Ceiling: 2000
Heat Index: 36°   Visibility: 7mi
Dew Point: 33°   Wind: 9mph
Humidity: 89%   Direction: 340°NNW
Pressure: 30.15"   Gusts: NA
Location:  48.71°N, 94.6°W
Report Text: KBDE 301553Z AUTO 34008KT 7SM -RA SCT014 BKN020 OVC030 02/01 A3015 RMK AO2 UPB25E45RAB45 SLP225 P0001 T00220006 TSNO
Loading
Personal Weather Stations






























Interactive Weather Map
Tropical Storm Tracking
New forecast layout! Learn more

10-Day Weather Forecast

Advertisements
Track Severe Weather on mobile